createdAt,value
2018-03-29T00:01:37.031Z,98873.14
2018-03-29T00:04:03.080Z,98874.17
2018-03-29T00:06:29.094Z,98877.37
2018-03-29T00:08:55.193Z,98867.88
2018-03-29T00:11:21.216Z,98874.21
2018-03-29T00:13:47.306Z,98919.92
2018-03-29T00:16:14.020Z,98889.97
2018-03-29T00:18:40.079Z,98900.27
2018-03-29T00:21:06.162Z,98918.20
2018-03-29T00:23:32.180Z,98910.96
2018-03-29T00:25:58.288Z,98922.11
2018-03-29T00:28:24.319Z,98938.14
2018-03-29T00:30:50.399Z,98965.84
2018-03-29T00:33:16.423Z,98946.86
2018-03-29T00:35:42.475Z,98954.28
2018-03-29T00:38:08.500Z,98965.92
2018-03-29T00:40:34.666Z,98975.73
2018-03-29T00:43:00.748Z,98976.57
2018-03-29T00:45:27.983Z,98993.84
2018-03-29T00:47:54.023Z,99011.38
2018-03-29T00:50:20.207Z,99022.52
2018-03-29T00:52:46.259Z,99002.59
2018-03-29T00:55:12.374Z,99025.32
2018-03-29T00:57:38.420Z,99013.19
2018-03-29T01:00:04.479Z,99022.73
2018-03-29T01:02:30.627Z,99040.00
2018-03-29T01:04:56.944Z,99041.04
2018-03-29T01:07:22.978Z,99045.06
2018-03-29T01:09:49.063Z,99076.52
2018-03-29T01:12:19.042Z,99088.61
2018-03-29T01:14:58.000Z,99069.39
2018-03-29T01:17:23.901Z,99080.81
2018-03-29T01:19:49.751Z,99099.89
2018-03-29T01:22:15.625Z,99078.69
2018-03-29T01:24:41.492Z,99104.73
2018-03-29T01:27:07.342Z,99126.92
2018-03-29T01:29:33.192Z,99136.09
2018-03-29T01:34:40.976Z,99120.27
2018-03-29T01:37:06.818Z,99116.92
2018-03-29T01:39:32.688Z,99138.63
2018-03-29T01:41:58.532Z,99143.72
2018-03-29T01:44:24.415Z,99173.71
2018-03-29T01:46:50.265Z,99160.77
2018-03-29T01:49:16.111Z,99156.58
2018-03-29T01:51:41.977Z,99175.25
2018-03-29T01:54:07.812Z,99162.84
2018-03-29T01:56:33.660Z,99180.98
2018-03-29T01:58:59.524Z,99177.69
2018-03-29T02:01:25.387Z,99216.28
2018-03-29T02:03:51.218Z,99201.41
2018-03-29T02:06:17.087Z,99202.61
2018-03-29T02:08:42.943Z,99215.41
2018-03-29T02:11:08.769Z,99205.53
2018-03-29T02:13:34.630Z,99213.71
2018-03-29T02:16:00.476Z,99213.71
2018-03-29T02:18:26.380Z,99226.48
2018-03-29T02:20:52.216Z,99228.38
2018-03-29T02:23:18.042Z,99223.96
2018-03-29T02:25:43.899Z,99228.19
2018-03-29T02:28:09.742Z,99233.91
2018-03-29T02:30:35.639Z,99234.70
2018-03-29T02:33:01.482Z,99241.66
2018-03-29T02:35:27.318Z,99242.12
2018-03-29T02:37:53.176Z,99259.17
2018-03-29T02:40:19.012Z,99249.62
2018-03-29T02:42:44.890Z,99247.03
2018-03-29T02:45:10.749Z,99261.42
2018-03-29T02:47:36.622Z,99251.48
2018-03-29T02:50:02.514Z,99254.54
2018-03-29T02:52:28.355Z,99259.48
2018-03-29T02:54:54.214Z,99290.77
2018-03-29T02:57:20.065Z,99259.54
2018-03-29T02:59:45.945Z,99270.41
2018-03-29T03:02:11.818Z,99311.77
2018-03-29T03:04:37.657Z,99285.69
2018-03-29T03:07:03.523Z,99276.64
2018-03-29T03:09:29.365Z,99278.47
2018-03-29T03:11:55.248Z,99282.73
2018-03-29T03:14:21.086Z,99276.52
2018-03-29T03:16:46.933Z,99285.97
2018-03-29T03:19:12.783Z,99301.22
2018-03-29T03:21:38.629Z,99298.66
2018-03-29T03:24:04.494Z,99293.53
2018-03-29T03:26:30.326Z,99299.55
2018-03-29T03:28:56.194Z,99318.20
2018-03-29T03:31:22.069Z,99317.68
2018-03-29T03:36:40.705Z,99332.47
2018-03-29T03:39:06.544Z,99343.62
2018-03-29T03:41:32.406Z,99333.73
2018-03-29T03:43:58.248Z,99348.75
2018-03-29T03:46:24.114Z,99350.98
2018-03-29T03:48:49.953Z,99351.48
2018-03-29T03:51:15.814Z,99355.81
2018-03-29T03:53:41.668Z,99363.53
2018-03-29T03:56:07.531Z,99366.38
2018-03-29T03:58:33.394Z,99375.55
2018-03-29T04:00:59.253Z,99380.30
2018-03-29T04:03:25.088Z,99367.30
2018-03-29T04:05:50.955Z,99381.57
2018-03-29T04:08:16.809Z,99376.91
2018-03-29T04:10:42.672Z,99381.95
2018-03-29T04:13:08.537Z,99385.46
2018-03-29T04:15:34.402Z,99382.00
2018-03-29T04:18:00.242Z,99408.97
2018-03-29T04:20:26.090Z,99396.09
2018-03-29T04:22:51.940Z,99393.49
2018-03-29T04:25:17.781Z,99398.73
2018-03-29T04:27:43.640Z,99404.08
2018-03-29T04:30:09.506Z,99407.97
2018-03-29T04:32:35.370Z,99412.80
2018-03-29T04:35:01.212Z,99408.86
2018-03-29T04:37:27.083Z,99417.02
2018-03-29T04:39:52.937Z,99417.91
2018-03-29T04:42:18.787Z,99429.45
2018-03-29T04:44:44.639Z,99428.16
2018-03-29T04:47:10.486Z,99435.45
2018-03-29T04:49:36.326Z,99440.20
2018-03-29T04:52:02.196Z,99436.66
2018-03-29T04:54:28.039Z,99434.52
2018-03-29T04:56:53.905Z,99430.94
2018-03-29T04:59:19.786Z,99438.73
2018-03-29T05:01:45.660Z,99458.63
2018-03-29T05:04:11.537Z,99451.71
2018-03-29T05:06:37.395Z,99468.09
2018-03-29T05:09:03.336Z,99462.87
2018-03-29T05:11:29.205Z,99493.94
2018-03-29T05:13:55.063Z,99496.99
2018-03-29T05:16:20.909Z,99498.80
2018-03-29T05:18:46.858Z,99481.97
2018-03-29T05:21:12.703Z,99489.80
2018-03-29T05:23:38.542Z,99490.66
2018-03-29T05:26:06.421Z,99489.84
2018-03-29T05:28:32.303Z,99492.85
2018-03-29T05:30:58.182Z,99495.86
2018-03-29T05:33:24.011Z,99498.75
2018-03-29T05:35:50.776Z,99502.59
2018-03-29T05:38:16.619Z,99496.89
2018-03-29T05:40:42.481Z,99505.16
2018-03-29T05:43:08.336Z,99517.70
2018-03-29T05:45:34.199Z,99514.29
2018-03-29T05:48:00.073Z,99513.05
2018-03-29T05:50:25.919Z,99511.61
2018-03-29T05:52:51.765Z,99515.58
2018-03-29T05:55:17.631Z,99518.48
2018-03-29T05:57:43.455Z,99521.48
2018-03-29T06:00:09.336Z,99527.92
2018-03-29T06:02:35.196Z,99537.94
2018-03-29T06:05:01.079Z,99542.77
2018-03-29T06:07:26.926Z,99556.25
2018-03-29T06:09:52.781Z,99546.27
2018-03-29T06:12:18.642Z,99548.49
2018-03-29T06:14:44.507Z,99553.73
2018-03-29T06:17:16.465Z,99551.19
2018-03-29T06:19:42.336Z,99558.02
2018-03-29T06:22:08.174Z,99560.76
2018-03-29T06:24:34.007Z,99555.55
2018-03-29T06:26:59.844Z,99580.56
2018-03-29T06:29:25.722Z,99568.83
2018-03-29T06:31:51.576Z,99574.74
2018-03-29T06:34:17.473Z,99567.80
2018-03-29T06:36:43.296Z,99576.03
2018-03-29T06:39:09.142Z,99584.58
2018-03-29T06:41:34.997Z,99585.06
2018-03-29T06:44:00.868Z,99587.59
2018-03-29T06:46:26.722Z,99594.80
2018-03-29T06:48:52.597Z,99589.00
2018-03-29T06:51:18.461Z,99598.09
2018-03-29T06:53:44.303Z,99589.83
2018-03-29T06:56:10.207Z,99594.94
2018-03-29T06:58:36.060Z,99601.32
2018-03-29T07:01:01.991Z,99601.15
2018-03-29T07:03:27.784Z,99619.80
2018-03-29T07:05:53.658Z,99597.13
2018-03-29T07:08:19.528Z,99601.71
2018-03-29T07:10:45.347Z,99609.91
2018-03-29T07:13:11.178Z,99624.11
2018-03-29T07:15:37.024Z,99614.05
2018-03-29T07:18:02.858Z,99631.28
2018-03-29T07:20:28.735Z,99615.11
2018-03-29T07:22:54.581Z,99632.80
2018-03-29T07:25:20.425Z,99624.98
2018-03-29T07:27:46.296Z,99626.61
2018-03-29T07:30:12.137Z,99636.13
2018-03-29T07:32:38.004Z,99639.45
2018-03-29T07:35:03.878Z,99641.52
2018-03-29T07:37:29.741Z,99639.65
2018-03-29T07:39:56.126Z,99649.87
2018-03-29T07:42:21.982Z,99653.28
2018-03-29T07:44:47.856Z,99664.98
2018-03-29T07:47:13.708Z,99656.26
2018-03-29T07:49:39.583Z,99666.56
2018-03-29T07:52:05.430Z,99660.99
2018-03-29T07:54:31.351Z,99655.48
2018-03-29T07:56:57.187Z,99665.48
2018-03-29T07:59:23.046Z,99655.48
2018-03-29T08:01:48.921Z,99667.23
2018-03-29T08:04:14.764Z,99655.25
2018-03-29T08:06:40.641Z,99656.13
2018-03-29T08:09:06.479Z,99660.59
2018-03-29T08:11:32.343Z,99658.63
2018-03-29T08:13:58.176Z,99664.61
2018-03-29T08:16:24.057Z,99670.12
2018-03-29T08:18:49.914Z,99666.66
2018-03-29T08:21:15.747Z,99657.69
2018-03-29T08:23:41.623Z,99668.44
2018-03-29T08:26:07.573Z,99665.40
2018-03-29T08:28:33.428Z,99672.98
2018-03-29T08:30:59.250Z,99670.70
2018-03-29T08:33:25.108Z,99709.87
2018-03-29T08:35:50.970Z,99676.05
2018-03-29T08:38:16.839Z,99677.23
2018-03-29T08:40:42.727Z,99680.57
2018-03-29T08:43:08.589Z,99694.13
2018-03-29T08:45:34.439Z,99689.36
2018-03-29T08:48:00.321Z,99691.59
2018-03-29T08:50:26.196Z,99691.84
2018-03-29T08:52:52.052Z,99698.75
2018-03-29T08:55:17.922Z,99700.86
2018-03-29T08:57:43.812Z,99701.31
2018-03-29T09:00:09.638Z,99701.84
2018-03-29T09:02:35.499Z,99714.81
2018-03-29T09:07:54.147Z,99711.26
2018-03-29T09:10:19.996Z,99703.55
2018-03-29T09:12:45.850Z,99711.41
2018-03-29T09:15:11.714Z,99707.10
2018-03-29T09:17:37.588Z,99706.67
2018-03-29T09:20:03.465Z,99707.91
2018-03-29T09:22:29.289Z,99710.83
2018-03-29T09:24:55.143Z,99719.75
2018-03-29T09:27:21.014Z,99716.34
2018-03-29T09:29:46.889Z,99727.84
2018-03-29T09:32:12.750Z,99730.91
2018-03-29T09:34:38.588Z,99750.30
2018-03-29T09:37:04.460Z,99748.47
2018-03-29T09:39:45.256Z,99742.84
2018-03-29T09:42:11.114Z,99744.88
2018-03-29T09:44:36.947Z,99742.96
2018-03-29T09:47:02.799Z,99764.89
2018-03-29T09:49:28.680Z,99762.17
2018-03-29T09:51:54.526Z,99759.72
2018-03-29T09:54:20.400Z,99759.98
2018-03-29T09:56:46.217Z,99761.23
2018-03-29T09:59:12.101Z,99775.22
2018-03-29T10:01:37.984Z,99762.13
2018-03-29T10:04:09.916Z,99763.13
2018-03-29T10:06:40.815Z,99768.92
2018-03-29T10:09:06.656Z,99765.11
2018-03-29T10:11:32.523Z,99770.21
2018-03-29T10:13:58.404Z,99759.66
2018-03-29T10:16:24.302Z,99755.24
2018-03-29T10:18:50.205Z,99758.72
2018-03-29T10:21:16.007Z,99753.64
2018-03-29T10:23:41.866Z,99790.69
2018-03-29T10:26:07.703Z,99781.70
2018-03-29T10:28:33.558Z,99774.96
2018-03-29T10:30:59.408Z,99779.77
2018-03-29T10:33:25.268Z,99774.16
2018-03-29T10:35:51.230Z,99766.84
2018-03-29T10:38:17.038Z,99779.43
2018-03-29T10:40:42.911Z,99775.88
2018-03-29T10:43:08.757Z,99774.16
2018-03-29T10:45:34.629Z,99780.17
2018-03-29T10:48:00.501Z,99792.93
2018-03-29T10:50:26.366Z,99781.81
2018-03-29T10:52:52.225Z,99783.64
2018-03-29T10:55:18.088Z,99806.06
2018-03-29T10:57:43.933Z,99783.18
2018-03-29T11:00:09.829Z,99785.52
2018-03-29T11:02:35.689Z,99807.38
2018-03-29T11:05:01.543Z,99800.97
2018-03-29T11:07:27.408Z,99784.53
2018-03-29T11:09:53.259Z,99795.29
2018-03-29T11:12:19.126Z,99796.66
2018-03-29T11:14:44.982Z,99794.21
2018-03-29T11:17:10.822Z,99786.30
2018-03-29T11:19:36.694Z,99792.84
2018-03-29T11:22:02.540Z,99801.46
2018-03-29T11:24:28.406Z,99797.25
2018-03-29T11:26:54.249Z,99798.80
2018-03-29T11:29:20.156Z,99799.58
2018-03-29T11:31:46.013Z,99809.52
2018-03-29T11:34:11.889Z,99800.97
2018-03-29T11:36:37.732Z,99807.91
2018-03-29T11:39:03.618Z,99807.54
2018-03-29T11:41:29.485Z,99811.11
2018-03-29T11:43:55.320Z,99809.80
2018-03-29T11:46:21.207Z,99815.50
2018-03-29T11:48:47.066Z,99817.33
2018-03-29T11:51:12.892Z,99820.05
2018-03-29T11:53:38.723Z,99818.09
2018-03-29T11:56:04.577Z,99821.55
2018-03-29T11:58:30.452Z,99834.02
2018-03-29T12:00:56.301Z,99822.25
2018-03-29T12:03:22.161Z,99819.42
2018-03-29T12:05:48.020Z,99816.46
2018-03-29T12:08:13.881Z,99814.41
2018-03-29T12:10:39.724Z,99806.73
2018-03-29T12:13:05.611Z,99796.37
2018-03-29T12:15:31.479Z,99794.77
2018-03-29T12:17:57.334Z,99800.16
2018-03-29T12:20:23.216Z,99795.33
2018-03-29T12:22:49.050Z,99787.44
2018-03-29T12:25:14.900Z,99790.75
2018-03-29T12:27:40.747Z,99796.61
2018-03-29T12:30:06.639Z,99791.35
2018-03-29T12:32:32.520Z,99792.94
2018-03-29T12:34:58.370Z,99789.25
2018-03-29T12:37:24.216Z,99795.86
2018-03-29T12:39:50.084Z,99799.77
2018-03-29T12:42:15.945Z,99793.04
2018-03-29T12:44:41.809Z,99791.92
2018-03-29T12:47:07.660Z,99795.34
2018-03-29T12:49:33.519Z,99788.33
2018-03-29T12:51:59.370Z,99782.95
2018-03-29T12:54:37.568Z,99791.70
2018-03-29T12:57:15.863Z,99789.73
2018-03-29T12:59:41.755Z,99792.85
2018-03-29T13:02:07.609Z,99788.83
2018-03-29T13:04:33.473Z,99790.32
2018-03-29T13:06:59.310Z,99791.11
2018-03-29T13:09:25.164Z,99791.98
2018-03-29T13:11:51.061Z,99792.02
2018-03-29T13:14:16.921Z,99788.11
2018-03-29T13:16:42.780Z,99785.05
2018-03-29T13:19:08.616Z,99780.91
2018-03-29T13:21:34.528Z,99781.84
2018-03-29T13:24:00.373Z,99787.27
2018-03-29T13:26:26.238Z,99780.39
2018-03-29T13:28:52.105Z,99780.48
2018-03-29T13:31:17.968Z,99776.88
2018-03-29T13:33:43.836Z,99785.05
2018-03-29T13:36:09.655Z,99790.16
2018-03-29T13:38:35.537Z,99791.33
2018-03-29T13:41:01.385Z,99786.66
2018-03-29T13:43:27.266Z,99803.96
2018-03-29T13:45:53.118Z,99786.33
2018-03-29T13:48:18.976Z,99788.63
2018-03-29T13:50:44.846Z,99797.11
2018-03-29T13:53:10.707Z,99783.61
2018-03-29T13:55:36.602Z,99788.28
2018-03-29T13:58:02.738Z,99793.13
2018-03-29T14:00:28.592Z,99785.66
2018-03-29T14:02:54.476Z,99784.59
2018-03-29T14:05:20.331Z,99790.86
2018-03-29T14:07:46.222Z,99781.22
2018-03-29T14:10:12.057Z,99781.35
2018-03-29T14:12:37.946Z,99783.40
2018-03-29T14:15:03.819Z,99777.89
2018-03-29T14:17:29.669Z,99784.66
2018-03-29T14:19:55.571Z,99793.36
2018-03-29T14:22:21.432Z,99788.97
2018-03-29T14:24:47.288Z,99776.66
2018-03-29T14:27:13.135Z,99781.66
2018-03-29T14:29:39.008Z,99788.23
2018-03-29T14:32:04.866Z,99779.63
2018-03-29T14:34:30.729Z,99786.05
2018-03-29T14:36:56.667Z,99786.02
2018-03-29T14:39:22.538Z,99784.02
2018-03-29T14:41:48.411Z,99781.14
2018-03-29T14:44:14.288Z,99782.80
2018-03-29T14:46:40.176Z,99786.59
2018-03-29T14:49:06.040Z,99784.13
2018-03-29T14:51:31.890Z,99787.48
2018-03-29T14:53:57.766Z,99772.57
2018-03-29T14:56:23.631Z,99780.97
2018-03-29T14:58:49.569Z,99775.05
2018-03-29T15:01:15.432Z,99770.02
2018-03-29T15:03:41.400Z,99773.70
2018-03-29T15:06:07.271Z,99786.73
2018-03-29T15:08:33.149Z,99775.14
2018-03-29T15:10:59.029Z,99779.36
2018-03-29T15:13:24.890Z,99778.58
2018-03-29T15:15:50.763Z,99775.95
2018-03-29T15:18:16.607Z,99773.16
2018-03-29T15:20:42.445Z,99778.45
2018-03-29T15:23:08.301Z,99781.52
2018-03-29T15:25:34.189Z,99771.05
2018-03-29T15:28:01.082Z,99769.83
2018-03-29T15:30:26.938Z,99768.84
2018-03-29T15:32:52.816Z,99773.36
2018-03-29T15:35:18.695Z,99761.12
2018-03-29T15:37:44.545Z,99764.03
2018-03-29T15:40:10.422Z,99777.96
2018-03-29T15:42:36.265Z,99786.78
2018-03-29T15:45:02.140Z,99785.28
2018-03-29T15:47:27.988Z,99780.20
2018-03-29T15:49:53.850Z,99791.16
2018-03-29T15:52:19.737Z,99792.99
2018-03-29T15:54:45.581Z,99792.77
2018-03-29T15:57:11.435Z,99805.75
2018-03-29T15:59:37.290Z,99804.09
2018-03-29T16:02:03.196Z,99803.63
2018-03-29T16:04:29.060Z,99804.31
2018-03-29T16:06:54.933Z,99822.42
2018-03-29T16:09:20.790Z,99823.73
2018-03-29T16:11:46.669Z,99816.45
2018-03-29T16:14:12.518Z,99830.95
2018-03-29T16:16:38.386Z,99832.64
2018-03-29T16:19:04.263Z,99835.30
2018-03-29T16:24:12.096Z,99846.17
2018-03-29T16:26:37.985Z,99851.92
2018-03-29T16:29:03.859Z,99850.75
2018-03-29T16:31:29.743Z,99849.23
2018-03-29T16:33:55.677Z,99845.22
2018-03-29T16:36:21.531Z,99843.56
2018-03-29T16:38:47.416Z,99851.67
2018-03-29T16:41:13.297Z,99856.98
2018-03-29T16:43:39.177Z,99853.41
2018-03-29T16:46:05.059Z,99864.33
2018-03-29T16:48:30.931Z,99866.92
2018-03-29T16:50:56.830Z,99868.05
2018-03-29T16:53:22.687Z,99875.95
2018-03-29T16:55:48.699Z,99888.29
2018-03-29T16:58:14.625Z,99893.55
2018-03-29T17:00:40.449Z,99898.65
2018-03-29T17:03:06.334Z,99900.61
2018-03-29T17:05:32.208Z,99906.23
2018-03-29T17:07:58.151Z,99907.16
2018-03-29T17:10:24.000Z,99907.16
2018-03-29T17:12:49.929Z,99910.36
2018-03-29T17:15:15.806Z,99909.99
2018-03-29T17:17:41.656Z,99918.30
2018-03-29T17:20:07.516Z,99918.27
2018-03-29T17:22:33.387Z,99926.30
2018-03-29T17:24:59.247Z,99925.09
2018-03-29T17:27:25.139Z,99937.59
2018-03-29T17:29:51.042Z,99943.61
2018-03-29T17:32:16.888Z,99941.50
2018-03-29T17:34:42.770Z,99947.64
2018-03-29T17:37:08.615Z,99935.86
2018-03-29T17:39:34.517Z,99944.62
2018-03-29T17:42:00.423Z,99950.08
2018-03-29T17:44:26.293Z,99947.50
2018-03-29T17:46:53.200Z,99946.63
2018-03-29T17:49:19.059Z,99951.47
2018-03-29T17:51:44.938Z,99954.56
2018-03-29T17:54:10.779Z,99954.67
2018-03-29T17:56:36.716Z,99959.10
2018-03-29T17:59:02.642Z,99957.19
2018-03-29T18:01:28.560Z,99967.19
2018-03-29T18:03:54.450Z,99964.34
2018-03-29T18:06:20.301Z,99969.58
2018-03-29T18:08:46.184Z,99979.20
2018-03-29T18:11:12.098Z,99983.97
2018-03-29T18:13:38.018Z,99984.53
2018-03-29T18:16:03.911Z,99988.29
2018-03-29T18:18:29.782Z,99992.41
2018-03-29T18:20:55.809Z,99986.30
2018-03-29T18:23:21.668Z,99992.08
2018-03-29T18:25:48.450Z,100003.34
2018-03-29T18:28:14.660Z,100003.04
2018-03-29T18:30:40.581Z,100008.38
2018-03-29T18:33:06.467Z,100008.02
2018-03-29T18:35:33.327Z,100012.91
2018-03-29T18:37:59.235Z,100017.68
2018-03-29T18:40:25.321Z,100026.45
2018-03-29T18:42:51.275Z,100029.56
2018-03-29T18:45:17.136Z,100023.50
2018-03-29T18:47:43.612Z,100029.28
2018-03-29T18:50:09.494Z,100030.53
2018-03-29T18:52:35.348Z,100026.64
2018-03-29T18:55:01.831Z,100029.72
2018-03-29T18:57:27.700Z,100032.83
2018-03-29T18:59:53.635Z,100038.00
2018-03-29T19:02:19.499Z,100037.66
2018-03-29T19:04:45.363Z,100034.65
2018-03-29T19:07:11.297Z,100041.16
2018-03-29T19:09:37.238Z,100046.36
2018-03-29T19:12:03.172Z,100048.16
2018-03-29T19:14:29.714Z,100052.48
2018-03-29T19:16:56.435Z,100051.22
2018-03-29T19:19:22.443Z,100049.55
2018-03-29T19:21:48.369Z,100050.47
2018-03-29T19:24:14.261Z,100052.69
2018-03-29T19:26:40.164Z,100058.33
2018-03-29T19:29:06.127Z,100049.72
2018-03-29T19:31:32.031Z,100057.13
2018-03-29T19:33:57.950Z,100057.14
2018-03-29T19:36:23.871Z,100062.37
2018-03-29T19:38:49.809Z,100060.23
2018-03-29T19:41:16.494Z,100074.94
2018-03-29T19:43:42.457Z,100075.78
2018-03-29T19:46:08.387Z,100077.57
2018-03-29T19:48:34.263Z,100085.04
2018-03-29T19:51:00.198Z,100083.30
2018-03-29T19:53:26.125Z,100082.96
2018-03-29T19:55:52.040Z,100092.08
2018-03-29T19:58:18.093Z,100087.34
2018-03-29T20:00:44.338Z,100086.97
2018-03-29T20:03:12.102Z,100090.42
2018-03-29T20:05:38.133Z,100091.73
2018-03-29T20:08:04.043Z,100092.16
2018-03-29T20:10:29.950Z,100095.22
2018-03-29T20:12:55.813Z,100094.34
2018-03-29T20:15:21.741Z,100102.11
2018-03-29T20:17:47.660Z,100096.51
2018-03-29T20:20:13.941Z,100101.72
2018-03-29T20:22:39.837Z,100100.39
2018-03-29T20:25:05.711Z,100105.11
2018-03-29T20:27:31.627Z,100107.37
2018-03-29T20:29:58.339Z,100107.89
2018-03-29T20:32:24.280Z,100108.86
2018-03-29T20:34:50.166Z,100103.77
2018-03-29T20:37:16.077Z,100107.35
2018-03-29T20:39:42.050Z,100103.56
2018-03-29T20:42:07.958Z,100101.84
2018-03-29T20:44:48.806Z,100105.45
2018-03-29T20:47:14.731Z,100109.05
2018-03-29T20:49:41.007Z,100113.41
2018-03-29T20:52:06.932Z,100117.45
2018-03-29T20:54:32.807Z,100127.00
2018-03-29T20:56:58.686Z,100126.16
2018-03-29T20:59:24.599Z,100131.78
2018-03-29T21:01:50.487Z,100132.67
2018-03-29T21:04:16.377Z,100125.75
2018-03-29T21:06:42.247Z,100127.45
2018-03-29T21:09:08.127Z,100126.26
2018-03-29T21:11:34.055Z,100126.72
2018-03-29T21:13:59.964Z,100124.19
2018-03-29T21:16:26.829Z,100127.27
2018-03-29T21:18:52.787Z,100127.78
2018-03-29T21:21:18.682Z,100135.55
2018-03-29T21:23:44.558Z,100134.30
2018-03-29T21:26:10.440Z,100130.88
2018-03-29T21:28:36.455Z,100135.66
2018-03-29T21:31:02.447Z,100136.52
2018-03-29T21:33:28.340Z,100140.81
2018-03-29T21:35:54.460Z,100143.02
2018-03-29T21:38:20.295Z,100146.83
2018-03-29T21:40:46.229Z,100143.73
2018-03-29T21:43:12.198Z,100142.41
2018-03-29T21:45:38.167Z,100134.50
2018-03-29T21:48:04.107Z,100136.27
2018-03-29T21:50:30.603Z,100131.52
2018-03-29T21:52:56.526Z,100134.55
2018-03-29T21:55:22.385Z,100129.80
2018-03-29T21:57:48.305Z,100125.14
2018-03-29T22:00:14.814Z,100135.12
2018-03-29T22:02:40.835Z,100136.47
2018-03-29T22:05:06.758Z,100133.03
2018-03-29T22:07:32.604Z,100137.38
2018-03-29T22:09:58.495Z,100133.98
2018-03-29T22:12:25.339Z,100134.40
2018-03-29T22:14:51.218Z,100132.30
2018-03-29T22:17:17.098Z,100141.80
2018-03-29T22:19:42.983Z,100146.13
2018-03-29T22:22:08.843Z,100154.33
2018-03-29T22:24:34.808Z,100154.33
2018-03-29T22:27:00.712Z,100155.64
2018-03-29T22:29:26.628Z,100161.25
2018-03-29T22:31:52.489Z,100153.95
2018-03-29T22:34:18.438Z,100158.27
2018-03-29T22:36:48.619Z,100155.66
2018-03-29T22:39:14.506Z,100152.64
2018-03-29T22:41:40.482Z,100148.34
2018-03-29T22:44:06.347Z,100156.53
2018-03-29T22:46:32.203Z,100155.24
2018-03-29T22:48:58.070Z,100153.09
2018-03-29T22:51:23.899Z,100159.55
2018-03-29T22:53:49.797Z,100167.74
2018-03-29T22:56:15.652Z,100168.19
2018-03-29T22:58:41.506Z,100172.05
2018-03-29T23:01:07.389Z,100172.05
2018-03-29T23:03:33.253Z,100167.73
2018-03-29T23:05:59.154Z,100179.80
2018-03-29T23:11:17.821Z,100186.23
2018-03-29T23:13:43.659Z,100187.53
2018-03-29T23:16:09.517Z,100191.41
2018-03-29T23:18:35.365Z,100187.95
2018-03-29T23:21:01.222Z,100186.25
2018-03-29T23:23:27.117Z,100172.87
2018-03-29T23:25:52.985Z,100178.05
2018-03-29T23:28:18.851Z,100182.34
2018-03-29T23:30:44.715Z,100186.66
2018-03-29T23:33:10.577Z,100188.80
2018-03-29T23:35:36.444Z,100199.99
2018-03-29T23:38:02.293Z,100200.83
2018-03-29T23:40:28.135Z,100199.97
2018-03-29T23:42:53.976Z,100197.84
2018-03-29T23:45:19.860Z,100187.92
2018-03-29T23:47:45.714Z,100193.95
2018-03-29T23:50:11.568Z,100193.53
2018-03-29T23:52:37.424Z,100193.06
2018-03-29T23:55:03.259Z,100197.36
2018-03-29T23:57:29.205Z,100199.52
2018-03-29T23:59:55.053Z,100199.91
